createdAt,value
2019-01-04T00:00:58.103Z,26.69
2019-01-04T00:01:57.955Z,26.64
2019-01-04T00:02:58.031Z,26.60
2019-01-04T00:03:58.073Z,26.61
2019-01-04T00:04:57.888Z,26.54
2019-01-04T00:05:57.833Z,26.61
2019-01-04T00:06:57.829Z,26.57
2019-01-04T00:07:57.802Z,26.57
2019-01-04T00:08:58.665Z,26.45
2019-01-04T00:09:57.760Z,26.47
2019-01-04T00:10:57.744Z,26.53
2019-01-04T00:11:57.725Z,26.52
2019-01-04T00:12:57.692Z,26.49
2019-01-04T00:13:57.766Z,26.50
2019-01-04T00:14:57.646Z,26.52
2019-01-04T00:15:57.607Z,26.45
2019-01-04T00:16:57.607Z,26.37
2019-01-04T00:17:57.569Z,26.35
2019-01-04T00:18:57.678Z,26.39
2019-01-04T00:19:57.689Z,26.32
2019-01-04T00:20:57.513Z,26.32
2019-01-04T00:21:57.465Z,26.30
2019-01-04T00:22:57.648Z,26.23
2019-01-04T00:23:57.408Z,26.34
2019-01-04T00:24:57.909Z,26.31
2019-01-04T00:25:57.545Z,26.26
2019-01-04T00:26:57.405Z,26.24
2019-01-04T00:27:57.346Z,26.35
2019-01-04T00:28:57.279Z,26.20
2019-01-04T00:29:57.303Z,26.24
2019-01-04T00:30:57.399Z,26.19
2019-01-04T00:31:57.227Z,26.16
2019-01-04T00:32:57.192Z,26.12
2019-01-04T00:33:57.178Z,26.26
2019-01-04T00:34:57.134Z,26.17
2019-01-04T00:35:57.173Z,26.27
2019-01-04T00:36:57.090Z,26.16
2019-01-04T00:37:57.099Z,26.22
2019-01-04T00:38:57.054Z,26.22
2019-01-04T00:39:57.010Z,26.20
2019-01-04T00:40:57.297Z,26.19
2019-01-04T00:41:57.000Z,26.22
2019-01-04T00:42:56.969Z,26.17
2019-01-04T00:43:56.941Z,26.19
2019-01-04T00:44:56.906Z,26.17
2019-01-04T00:45:56.980Z,26.09
2019-01-04T00:46:57.057Z,25.89
2019-01-04T00:47:57.117Z,25.94
2019-01-04T00:48:57.157Z,25.84
2019-01-04T00:49:57.353Z,25.82
2019-01-04T00:50:58.596Z,25.71
2019-01-04T00:51:57.717Z,25.78
2019-01-04T00:52:57.062Z,25.66
2019-01-04T00:53:56.884Z,25.71
2019-01-04T00:54:57.486Z,25.75
2019-01-04T00:55:56.936Z,25.75
2019-01-04T00:56:56.802Z,25.71
2019-01-04T00:57:56.813Z,25.66
2019-01-04T00:58:56.696Z,25.66
2019-01-04T00:59:57.168Z,25.56
2019-01-04T01:00:57.266Z,25.54
2019-01-04T01:01:56.601Z,25.54
2019-01-04T01:02:57.149Z,25.63
2019-01-04T01:03:56.519Z,25.51
2019-01-04T01:04:57.418Z,25.56
2019-01-04T01:05:56.617Z,25.63
2019-01-04T01:06:56.397Z,25.59
2019-01-04T01:07:56.333Z,25.59
2019-01-04T01:08:56.759Z,25.60
2019-01-04T01:09:56.633Z,25.63
2019-01-04T01:10:56.904Z,25.64
2019-01-04T01:11:56.429Z,25.67
2019-01-04T01:12:56.841Z,25.64
2019-01-04T01:13:57.579Z,25.75
2019-01-04T01:14:56.746Z,25.74
2019-01-04T01:15:56.561Z,25.75
2019-01-04T01:16:56.353Z,25.74
2019-01-04T01:17:56.400Z,25.76
2019-01-04T01:18:57.182Z,25.67
2019-01-04T01:19:56.161Z,25.69
2019-01-04T01:20:56.032Z,25.75
2019-01-04T01:21:57.021Z,25.74
2019-01-04T01:22:55.974Z,25.66
2019-01-04T01:23:56.984Z,25.67
2019-01-04T01:24:56.306Z,25.71
2019-01-04T01:25:56.821Z,25.62
2019-01-04T01:26:56.880Z,25.64
2019-01-04T01:27:56.049Z,25.56
2019-01-04T01:28:56.079Z,25.51
2019-01-04T01:29:56.022Z,25.54
2019-01-04T01:30:56.349Z,25.54
2019-01-04T01:31:56.321Z,25.49
2019-01-04T01:32:55.946Z,25.60
2019-01-04T01:33:55.899Z,25.60
2019-01-04T01:34:56.466Z,25.51
2019-01-04T01:35:55.813Z,25.60
2019-01-04T01:36:56.309Z,25.49
2019-01-04T01:37:55.679Z,25.59
2019-01-04T01:38:55.825Z,25.57
2019-01-04T01:39:55.607Z,25.52
2019-01-04T01:40:56.965Z,25.54
2019-01-04T01:41:55.548Z,25.59
2019-01-04T01:42:55.545Z,25.56
2019-01-04T01:43:55.477Z,25.51
2019-01-04T01:44:55.403Z,25.52
2019-01-04T01:45:55.425Z,25.48
2019-01-04T01:46:55.890Z,25.60
2019-01-04T01:47:55.397Z,25.64
2019-01-04T01:48:55.322Z,25.54
2019-01-04T01:49:55.288Z,25.42
2019-01-04T01:50:55.296Z,25.45
2019-01-04T01:51:55.382Z,25.52
2019-01-04T01:52:55.735Z,25.49
2019-01-04T01:53:55.192Z,25.39
2019-01-04T01:54:55.224Z,25.45
2019-01-04T01:55:55.619Z,25.48
2019-01-04T01:57:56.497Z,25.42
2019-01-04T01:58:55.165Z,25.33
2019-01-04T01:59:55.025Z,25.33
2019-01-04T02:00:55.023Z,25.41
2019-01-04T02:01:55.074Z,25.39
2019-01-04T02:02:55.200Z,25.27
2019-01-04T02:03:54.954Z,25.32
2019-01-04T02:04:54.994Z,25.29
2019-01-04T02:05:54.943Z,25.30
2019-01-04T02:06:54.847Z,25.33
2019-01-04T02:07:55.094Z,25.24
2019-01-04T02:08:54.811Z,25.20
2019-01-04T02:09:54.868Z,25.26
2019-01-04T02:10:54.775Z,25.20
2019-01-04T02:11:54.757Z,25.24
2019-01-04T02:12:54.756Z,25.32
2019-01-04T02:13:55.057Z,25.33
2019-01-04T02:14:54.634Z,25.27
2019-01-04T02:15:55.154Z,25.34
2019-01-04T02:16:54.837Z,25.32
2019-01-04T02:17:54.610Z,25.24
2019-01-04T02:18:54.736Z,25.22
2019-01-04T02:19:54.600Z,25.26
2019-01-04T02:20:54.552Z,25.22
2019-01-04T02:21:54.498Z,25.32
2019-01-04T02:22:54.496Z,25.29
2019-01-04T02:23:54.441Z,25.23
2019-01-04T02:24:54.763Z,25.23
2019-01-04T02:25:55.013Z,25.22
2019-01-04T02:26:54.654Z,25.24
2019-01-04T02:27:54.348Z,25.22
2019-01-04T02:28:54.311Z,25.20
2019-01-04T02:29:54.308Z,25.17
2019-01-04T02:30:54.500Z,25.22
2019-01-04T02:31:54.233Z,25.14
2019-01-04T02:32:54.204Z,25.23
2019-01-04T02:33:54.213Z,25.09
2019-01-04T02:34:54.170Z,25.09
2019-01-04T02:35:54.247Z,25.09
2019-01-04T02:36:54.121Z,25.09
2019-01-04T02:37:54.076Z,25.09
2019-01-04T02:38:54.100Z,25.15
2019-01-04T02:39:54.035Z,25.05
2019-01-04T02:40:54.103Z,25.12
2019-01-04T02:41:54.143Z,25.14
2019-01-04T02:42:54.030Z,25.12
2019-01-04T02:43:53.951Z,25.04
2019-01-04T02:44:53.896Z,25.09
2019-01-04T02:45:53.933Z,25.08
2019-01-04T02:46:54.105Z,25.08
2019-01-04T02:47:53.834Z,25.08
2019-01-04T02:48:53.862Z,25.02
2019-01-04T02:49:53.796Z,25.02
2019-01-04T02:50:53.746Z,25.04
2019-01-04T02:51:53.823Z,25.05
2019-01-04T02:52:53.698Z,25.12
2019-01-04T02:53:53.684Z,25.05
2019-01-04T02:54:53.640Z,25.12
2019-01-04T02:55:53.620Z,25.02
2019-01-04T02:56:53.718Z,25.02
2019-01-04T02:57:53.604Z,25.00
2019-01-04T02:58:53.546Z,25.00
2019-01-04T02:59:53.505Z,25.05
2019-01-04T03:00:53.499Z,25.04
2019-01-04T03:01:53.492Z,25.15
2019-01-04T03:02:53.483Z,25.08
2019-01-04T03:03:53.422Z,25.11
2019-01-04T03:04:53.387Z,25.08
2019-01-04T03:05:53.357Z,25.02
2019-01-04T03:06:53.349Z,25.09
2019-01-04T03:07:53.326Z,25.01
2019-01-04T03:08:53.390Z,25.07
2019-01-04T03:09:53.290Z,25.08
2019-01-04T03:10:53.247Z,25.05
2019-01-04T03:11:53.202Z,25.01
2019-01-04T03:12:53.187Z,25.01
2019-01-04T03:13:53.266Z,25.01
2019-01-04T03:14:53.205Z,24.97
2019-01-04T03:15:53.124Z,24.97
2019-01-04T03:16:53.100Z,24.93
2019-01-04T03:17:53.078Z,24.94
2019-01-04T03:18:53.169Z,24.92
2019-01-04T03:19:53.002Z,24.94
2019-01-04T03:20:52.970Z,25.01
2019-01-04T03:21:53.029Z,24.96
2019-01-04T03:22:52.939Z,25.00
2019-01-04T03:23:52.982Z,25.00
2019-01-04T03:24:52.994Z,24.93
2019-01-04T03:25:52.861Z,24.94
2019-01-04T03:26:52.830Z,24.92
2019-01-04T03:27:52.808Z,24.93
2019-01-04T03:28:52.791Z,24.92
2019-01-04T03:29:52.886Z,24.90
2019-01-04T03:30:54.309Z,24.94
2019-01-04T03:31:52.700Z,24.87
2019-01-04T03:32:52.695Z,24.96
2019-01-04T03:33:52.645Z,24.75
2019-01-04T03:34:52.734Z,24.75
2019-01-04T03:35:52.599Z,24.80
2019-01-04T03:36:52.585Z,24.80
2019-01-04T03:37:52.554Z,24.78
2019-01-04T03:38:52.529Z,24.78
2019-01-04T03:39:52.608Z,24.75
2019-01-04T03:40:52.477Z,24.80
2019-01-04T03:41:52.455Z,24.82
2019-01-04T03:42:52.438Z,24.74
2019-01-04T03:43:52.392Z,24.74
2019-01-04T03:44:52.361Z,24.71
2019-01-04T03:45:52.451Z,24.80
2019-01-04T03:46:52.540Z,24.67
2019-01-04T03:47:52.301Z,24.70
2019-01-04T03:48:52.292Z,24.61
2019-01-04T03:49:52.285Z,24.71
2019-01-04T03:50:52.328Z,24.59
2019-01-04T03:51:52.227Z,24.64
2019-01-04T03:52:52.169Z,24.64
2019-01-04T03:53:52.162Z,24.64
2019-01-04T03:54:52.123Z,24.64
2019-01-04T03:55:52.179Z,24.61
2019-01-04T03:56:52.160Z,24.61
2019-01-04T03:57:52.030Z,24.64
2019-01-04T03:58:52.046Z,24.61
2019-01-04T03:59:52.002Z,24.64
2019-01-04T04:00:51.972Z,24.59
2019-01-04T04:01:51.984Z,24.64
2019-01-04T04:02:52.026Z,24.61
2019-01-04T04:03:51.883Z,24.63
2019-01-04T04:04:51.883Z,24.67
2019-01-04T04:05:51.844Z,24.61
2019-01-04T04:06:51.793Z,24.67
2019-01-04T04:07:51.878Z,24.59
2019-01-04T04:08:51.786Z,24.59
2019-01-04T04:09:51.696Z,24.56
2019-01-04T04:10:51.706Z,24.58
2019-01-04T04:11:51.683Z,24.59
2019-01-04T04:12:51.766Z,24.64
2019-01-04T04:13:51.643Z,24.67
2019-01-04T04:14:51.614Z,24.61
2019-01-04T04:15:51.579Z,24.64
2019-01-04T04:16:51.565Z,24.59
2019-01-04T04:17:51.627Z,24.61
2019-01-04T04:18:51.530Z,24.66
2019-01-04T04:19:51.488Z,24.69
2019-01-04T04:20:51.455Z,24.66
2019-01-04T04:21:53.449Z,24.66
2019-01-04T04:22:51.394Z,24.61
2019-01-04T04:23:51.470Z,24.63
2019-01-04T04:24:51.385Z,24.56
2019-01-04T04:25:51.350Z,24.61
2019-01-04T04:26:52.458Z,24.69
2019-01-04T04:27:52.764Z,24.71
2019-01-04T04:28:51.417Z,24.70
2019-01-04T04:29:51.206Z,24.71
2019-01-04T04:30:51.200Z,24.70
2019-01-04T04:31:51.172Z,24.64
2019-01-04T04:32:51.151Z,24.77
2019-01-04T04:33:51.190Z,24.64
2019-01-04T04:34:51.197Z,24.63
2019-01-04T04:35:51.171Z,24.63
2019-01-04T04:36:51.034Z,24.59
2019-01-04T04:37:51.015Z,24.69
2019-01-04T04:38:50.988Z,24.70
2019-01-04T04:39:51.072Z,24.67
2019-01-04T04:40:51.020Z,24.70
2019-01-04T04:41:50.902Z,24.70
2019-01-04T04:42:50.865Z,24.82
2019-01-04T04:43:50.834Z,24.74
2019-01-04T04:44:50.931Z,24.71
2019-01-04T04:45:50.802Z,24.70
2019-01-04T04:46:50.796Z,24.69
2019-01-04T04:47:50.751Z,24.63
2019-01-04T04:48:50.731Z,24.63
2019-01-04T04:49:50.824Z,24.63
2019-01-04T04:50:50.773Z,24.61
2019-01-04T04:51:50.644Z,24.69
2019-01-04T04:52:50.686Z,24.66
2019-01-04T04:53:50.605Z,24.71
2019-01-04T04:54:50.649Z,24.70
2019-01-04T04:55:50.578Z,24.66
2019-01-04T04:56:50.526Z,24.66
2019-01-04T04:57:50.491Z,24.69
2019-01-04T04:58:50.453Z,24.61
2019-01-04T04:59:50.444Z,24.61
2019-01-04T05:00:50.496Z,24.56
2019-01-04T05:01:50.395Z,24.55
2019-01-04T05:02:50.375Z,24.69
2019-01-04T05:03:50.325Z,24.63
2019-01-04T05:04:50.408Z,24.48
2019-01-04T05:05:50.387Z,24.51
2019-01-04T05:06:50.404Z,24.66
2019-01-04T05:07:50.210Z,24.49
2019-01-04T05:08:50.216Z,24.46
2019-01-04T05:09:50.226Z,24.49
2019-01-04T05:10:50.132Z,24.52
2019-01-04T05:11:50.167Z,24.44
2019-01-04T05:12:50.204Z,24.40
2019-01-04T05:13:50.083Z,24.45
2019-01-04T05:14:50.053Z,24.48
2019-01-04T05:15:50.020Z,24.44
2019-01-04T05:16:50.065Z,24.42
2019-01-04T05:17:50.070Z,24.40
2019-01-04T05:18:49.939Z,24.36
2019-01-04T05:19:49.971Z,24.44
2019-01-04T05:20:49.886Z,24.30
2019-01-04T05:21:49.867Z,24.36
2019-01-04T05:22:50.204Z,24.34
2019-01-04T05:23:49.820Z,24.36
2019-01-04T05:24:49.801Z,24.33
2019-01-04T05:25:49.758Z,24.19
2019-01-04T05:26:49.723Z,24.24
2019-01-04T05:27:49.822Z,24.26
2019-01-04T05:28:49.683Z,24.19
2019-01-04T05:29:49.674Z,24.19
2019-01-04T05:30:49.624Z,24.18
2019-01-04T05:31:49.624Z,24.22
2019-01-04T05:32:49.678Z,24.19
2019-01-04T05:33:49.576Z,24.22
2019-01-04T05:34:49.567Z,24.09
2019-01-04T05:35:49.514Z,24.12
2019-01-04T05:36:49.474Z,24.09
2019-01-04T05:37:49.445Z,24.04
2019-01-04T05:38:49.542Z,24.09
2019-01-04T05:39:49.406Z,24.07
2019-01-04T05:40:49.384Z,24.12
2019-01-04T05:41:49.331Z,24.00
2019-01-04T05:42:49.328Z,23.96
2019-01-04T05:43:49.335Z,24.07
2019-01-04T05:44:49.369Z,23.93
2019-01-04T05:45:49.216Z,24.00
2019-01-04T05:46:49.219Z,23.94
2019-01-04T05:47:49.169Z,23.94
2019-01-04T05:48:49.234Z,23.90
2019-01-04T05:49:49.229Z,23.96
2019-01-04T05:50:49.413Z,23.85
2019-01-04T05:51:49.147Z,23.85
2019-01-04T05:52:49.044Z,23.90
2019-01-04T05:53:49.090Z,23.84
2019-01-04T05:54:49.139Z,23.89
2019-01-04T05:55:48.983Z,23.87
2019-01-04T05:56:48.962Z,23.78
2019-01-04T05:57:48.939Z,23.89
2019-01-04T05:58:48.904Z,23.81
2019-01-04T05:59:48.985Z,23.87
2019-01-04T06:00:48.832Z,23.90
2019-01-04T06:01:48.854Z,23.81
2019-01-04T06:02:48.808Z,23.84
2019-01-04T06:03:48.783Z,23.77
2019-01-04T06:04:48.857Z,23.82
2019-01-04T06:05:48.761Z,23.75
2019-01-04T06:06:48.693Z,23.78
2019-01-04T06:07:48.664Z,23.81
2019-01-04T06:08:48.660Z,23.81
2019-01-04T06:09:48.755Z,23.79
2019-01-04T06:10:48.588Z,23.74
2019-01-04T06:11:48.569Z,23.74
2019-01-04T06:12:48.532Z,23.85
2019-01-04T06:13:48.505Z,23.77
2019-01-04T06:14:48.477Z,23.85
2019-01-04T06:15:48.555Z,23.84
2019-01-04T06:16:48.435Z,23.77
2019-01-04T06:17:48.454Z,23.82
2019-01-04T06:18:48.387Z,23.85
2019-01-04T06:19:48.334Z,23.92
2019-01-04T06:20:48.337Z,23.84
2019-01-04T06:21:48.397Z,23.79
2019-01-04T06:22:48.285Z,23.82
2019-01-04T06:23:48.258Z,23.82
2019-01-04T06:24:48.396Z,23.84
2019-01-04T06:25:49.351Z,23.87
2019-01-04T06:26:48.309Z,23.81
2019-01-04T06:27:48.132Z,23.78
2019-01-04T06:28:48.123Z,23.74
2019-01-04T06:29:48.079Z,23.77
2019-01-04T06:30:48.067Z,23.75
2019-01-04T06:31:50.151Z,23.78
2019-01-04T06:32:48.018Z,23.74
2019-01-04T06:33:47.995Z,23.79
2019-01-04T06:34:47.972Z,23.82
2019-01-04T06:35:49.521Z,23.82
2019-01-04T06:36:47.913Z,23.84
2019-01-04T06:37:47.994Z,23.82
2019-01-04T06:38:47.861Z,23.87
2019-01-04T06:39:49.226Z,23.84
2019-01-04T06:40:47.785Z,23.75
2019-01-04T06:41:47.774Z,23.74
2019-01-04T06:42:47.858Z,23.75
2019-01-04T06:43:47.714Z,23.74
2019-01-04T06:44:47.671Z,23.77
2019-01-04T06:45:47.820Z,23.72
2019-01-04T06:46:47.694Z,23.67
2019-01-04T06:47:47.714Z,23.64
2019-01-04T06:48:47.584Z,23.64
2019-01-04T06:49:47.564Z,23.57
2019-01-04T06:50:47.527Z,23.63
2019-01-04T06:51:47.525Z,23.50
2019-01-04T06:52:47.541Z,23.50
2019-01-04T06:53:47.651Z,23.50
2019-01-04T06:54:47.432Z,23.53
2019-01-04T06:55:47.464Z,23.53
2019-01-04T06:56:47.377Z,23.45
2019-01-04T06:57:47.361Z,23.42
2019-01-04T06:58:47.316Z,23.41
2019-01-04T06:59:47.407Z,23.28
2019-01-04T07:00:47.358Z,23.29
2019-01-04T07:01:47.228Z,23.37
2019-01-04T07:02:47.245Z,23.41
2019-01-04T07:03:47.198Z,23.45
2019-01-04T07:04:47.268Z,23.42
2019-01-04T07:05:47.145Z,23.44
2019-01-04T07:06:47.118Z,23.44
2019-01-04T07:07:47.120Z,23.47
2019-01-04T07:08:47.049Z,23.44
2019-01-04T07:09:47.179Z,23.55
2019-01-04T07:10:47.006Z,23.47
2019-01-04T07:11:47.015Z,23.48
2019-01-04T07:12:46.981Z,23.50
2019-01-04T07:13:46.915Z,23.48
2019-01-04T07:14:46.993Z,23.34
2019-01-04T07:15:46.909Z,23.41
2019-01-04T07:16:46.902Z,23.32
2019-01-04T07:17:47.286Z,23.29
2019-01-04T07:18:46.832Z,23.25
2019-01-04T07:19:46.895Z,23.34
2019-01-04T07:20:46.751Z,23.34
2019-01-04T07:21:46.724Z,23.35
2019-01-04T07:22:46.715Z,23.32
2019-01-04T07:23:46.707Z,23.34
2019-01-04T07:24:46.759Z,23.35
2019-01-04T07:25:46.643Z,23.35
2019-01-04T07:26:46.591Z,23.32
2019-01-04T07:27:46.554Z,23.38
2019-01-04T07:28:46.534Z,23.34
2019-01-04T07:29:46.520Z,23.34
2019-01-04T07:30:46.597Z,23.26
2019-01-04T07:31:46.470Z,23.22
2019-01-04T07:32:46.428Z,23.26
2019-01-04T07:33:46.406Z,23.28
2019-01-04T07:34:46.382Z,23.10
2019-01-04T07:35:46.350Z,23.12
2019-01-04T07:36:46.405Z,23.10
2019-01-04T07:37:46.333Z,23.19
2019-01-04T07:38:46.302Z,23.14
2019-01-04T07:39:46.230Z,23.15
2019-01-04T07:40:46.225Z,23.18
2019-01-04T07:41:46.322Z,23.15
2019-01-04T07:42:46.177Z,23.14
2019-01-04T07:43:46.140Z,23.16
2019-01-04T07:44:46.105Z,23.16
2019-01-04T07:45:46.101Z,23.15
2019-01-04T07:46:46.240Z,23.10
2019-01-04T07:47:46.076Z,23.18
2019-01-04T07:48:45.998Z,23.10
2019-01-04T07:49:45.949Z,23.10
2019-01-04T07:50:45.944Z,23.19
2019-01-04T07:51:46.026Z,23.12
2019-01-04T07:52:45.894Z,23.09
2019-01-04T07:53:45.876Z,23.15
2019-01-04T07:54:45.830Z,23.12
2019-01-04T07:55:45.818Z,23.06
2019-01-04T07:56:45.923Z,23.04
2019-01-04T07:57:45.754Z,23.03
2019-01-04T07:58:45.730Z,22.96
2019-01-04T07:59:45.742Z,22.94
2019-01-04T08:00:45.657Z,23.00
2019-01-04T08:01:45.645Z,23.03
2019-01-04T08:02:45.717Z,22.91
2019-01-04T08:03:45.604Z,22.99
2019-01-04T08:04:45.593Z,23.06
2019-01-04T08:05:45.544Z,22.99
2019-01-04T08:06:45.601Z,23.04
2019-01-04T08:07:45.603Z,23.01
2019-01-04T08:08:45.468Z,23.04
2019-01-04T08:09:45.452Z,23.06
2019-01-04T08:10:47.188Z,23.07
2019-01-04T08:11:45.381Z,23.03
2019-01-04T08:12:45.385Z,23.07
2019-01-04T08:13:45.444Z,23.10
2019-01-04T08:14:45.326Z,23.10
2019-01-04T08:15:45.317Z,23.14
2019-01-04T08:16:45.277Z,23.12
2019-01-04T08:17:45.217Z,23.12
2019-01-04T08:18:45.292Z,23.19
2019-01-04T08:19:45.177Z,23.32
2019-01-04T08:20:45.154Z,23.07
2019-01-04T08:21:45.119Z,23.18
2019-01-04T08:22:45.113Z,23.28
2019-01-04T08:23:45.185Z,23.24
2019-01-04T08:24:45.059Z,23.19
2019-01-04T08:25:45.019Z,23.19
2019-01-04T08:26:44.989Z,23.26
2019-01-04T08:27:44.951Z,23.19
2019-01-04T08:28:45.032Z,23.25
2019-01-04T08:29:44.920Z,23.21
2019-01-04T08:30:44.877Z,23.14
2019-01-04T08:31:44.841Z,23.21
2019-01-04T08:32:44.870Z,23.32
2019-01-04T08:33:44.931Z,23.26
2019-01-04T08:34:44.799Z,23.29
2019-01-04T08:35:44.764Z,23.19
2019-01-04T08:36:44.723Z,23.16
2019-01-04T08:37:44.693Z,23.12
2019-01-04T08:38:44.755Z,23.12
2019-01-04T08:39:44.793Z,23.21
2019-01-04T08:40:44.646Z,23.15
2019-01-04T08:41:44.634Z,23.09
2019-01-04T08:42:44.566Z,23.19
2019-01-04T08:43:44.551Z,23.16
2019-01-04T08:44:44.616Z,23.18
2019-01-04T08:45:44.483Z,23.16
2019-01-04T08:46:44.450Z,23.16
2019-01-04T08:47:44.430Z,23.18
2019-01-04T08:48:44.455Z,23.12
2019-01-04T08:49:44.412Z,23.10
2019-01-04T08:50:44.449Z,23.14
2019-01-04T08:51:44.369Z,23.18
2019-01-04T08:52:44.317Z,23.16
2019-01-04T08:53:44.288Z,23.15
2019-01-04T08:54:44.263Z,23.19
2019-01-04T08:55:44.310Z,23.16
2019-01-04T08:56:44.204Z,23.18
2019-01-04T08:57:44.158Z,23.12
2019-01-04T08:58:44.165Z,23.35
2019-01-04T08:59:44.111Z,23.28
2019-01-04T09:00:44.178Z,23.35
2019-01-04T09:01:44.049Z,23.34
2019-01-04T09:02:44.022Z,23.37
2019-01-04T09:03:44.002Z,23.29
2019-01-04T09:04:44.015Z,23.35
2019-01-04T09:05:44.030Z,23.29
2019-01-04T09:06:43.913Z,23.38
2019-01-04T09:07:43.890Z,23.21
2019-01-04T09:08:43.880Z,23.25
2019-01-04T09:09:43.849Z,23.21
2019-01-04T09:10:43.883Z,23.38
2019-01-04T09:11:43.931Z,23.44
2019-01-04T09:12:43.754Z,23.53
2019-01-04T09:13:43.762Z,23.52
2019-01-04T09:14:43.713Z,23.56
2019-01-04T09:15:43.721Z,23.56
2019-01-04T09:16:43.812Z,23.56
2019-01-04T09:17:43.614Z,23.62
2019-01-04T09:18:43.604Z,23.70
2019-01-04T09:19:43.578Z,23.75
2019-01-04T09:20:43.536Z,23.89
2019-01-04T09:21:43.652Z,23.89
2019-01-04T09:22:43.514Z,24.00
2019-01-04T09:23:43.497Z,24.09
2019-01-04T09:24:43.470Z,24.03
2019-01-04T09:25:43.430Z,24.14
2019-01-04T09:26:43.388Z,24.07
2019-01-04T09:27:43.481Z,24.09
2019-01-04T09:28:43.318Z,24.15
2019-01-04T09:29:43.305Z,24.42
2019-01-04T09:30:43.297Z,24.45
2019-01-04T09:31:43.264Z,24.55
2019-01-04T09:32:43.367Z,24.64
2019-01-04T09:33:43.233Z,24.56
2019-01-04T09:34:43.176Z,24.70
2019-01-04T09:35:43.173Z,24.67
2019-01-04T09:36:43.129Z,24.59
2019-01-04T09:37:43.231Z,24.58
2019-01-04T09:38:43.120Z,24.63
2019-01-04T09:39:43.061Z,24.55
2019-01-04T09:40:43.053Z,24.51
2019-01-04T09:41:42.990Z,24.48
2019-01-04T09:42:43.087Z,24.48
2019-01-04T09:43:42.913Z,24.36
2019-01-04T09:44:42.910Z,24.36
2019-01-04T09:45:42.881Z,24.36
2019-01-04T09:46:42.866Z,24.21
2019-01-04T09:47:42.889Z,24.26
2019-01-04T09:48:42.903Z,24.21
2019-01-04T09:49:44.325Z,24.09
2019-01-04T09:50:42.751Z,24.15
2019-01-04T09:51:44.371Z,24.08
2019-01-04T09:52:43.801Z,24.02
2019-01-04T09:53:43.992Z,24.02
2019-01-04T09:54:43.630Z,23.94
2019-01-04T09:55:42.649Z,23.84
2019-01-04T09:56:44.520Z,23.75
2019-01-04T09:57:44.303Z,23.75
2019-01-04T09:58:42.828Z,23.67
2019-01-04T09:59:44.940Z,23.59
2019-01-04T10:00:43.768Z,23.62
2019-01-04T10:01:44.006Z,23.57
2019-01-04T10:02:43.893Z,23.56
2019-01-04T10:03:44.284Z,23.66
2019-01-04T10:04:42.414Z,23.52
2019-01-04T10:05:42.507Z,23.55
2019-01-04T10:06:43.868Z,23.55
2019-01-04T10:07:42.373Z,23.42
2019-01-04T10:08:45.026Z,23.48
2019-01-04T10:09:42.251Z,23.56
2019-01-04T10:10:42.224Z,23.59
2019-01-04T10:11:42.333Z,23.44
2019-01-04T10:12:42.170Z,23.52
2019-01-04T10:13:42.148Z,23.44
2019-01-04T10:14:42.133Z,23.47
2019-01-04T10:15:42.105Z,23.38
2019-01-04T10:16:42.171Z,23.40
2019-01-04T10:17:42.059Z,23.29
2019-01-04T10:18:42.061Z,23.35
2019-01-04T10:19:41.993Z,23.37
2019-01-04T10:20:41.986Z,23.34
2019-01-04T10:21:41.981Z,23.29
2019-01-04T10:22:42.004Z,23.34
2019-01-04T10:23:41.864Z,23.34
2019-01-04T10:24:41.860Z,23.32
2019-01-04T10:25:41.828Z,23.26
2019-01-04T10:26:41.794Z,23.18
2019-01-04T10:27:41.860Z,23.26
2019-01-04T10:28:41.732Z,23.19
2019-01-04T10:29:41.711Z,23.19
2019-01-04T10:30:41.693Z,23.26
2019-01-04T10:31:41.647Z,23.22
2019-01-04T10:32:41.784Z,23.26
2019-01-04T10:33:41.631Z,23.14
2019-01-04T10:34:41.593Z,23.12
2019-01-04T10:35:41.554Z,23.15
2019-01-04T10:36:41.551Z,23.16
2019-01-04T10:37:41.603Z,23.16
2019-01-04T10:38:41.510Z,23.16
2019-01-04T10:39:41.448Z,23.12
2019-01-04T10:40:41.437Z,23.15
2019-01-04T10:41:41.388Z,23.12
2019-01-04T10:42:41.378Z,23.12
2019-01-04T10:43:41.444Z,23.25
2019-01-04T10:44:41.352Z,23.12
2019-01-04T10:45:41.297Z,23.15
2019-01-04T10:46:41.309Z,23.16
2019-01-04T10:47:41.219Z,23.21
2019-01-04T10:48:41.336Z,23.19
2019-01-04T10:49:41.201Z,23.21
2019-01-04T10:50:41.148Z,23.19
2019-01-04T10:51:41.175Z,23.12
2019-01-04T10:52:41.114Z,23.22
2019-01-04T10:53:41.071Z,23.18
2019-01-04T10:54:41.141Z,23.19
2019-01-04T10:55:41.019Z,23.22
2019-01-04T10:56:41.021Z,23.22
2019-01-04T10:57:40.962Z,23.34
2019-01-04T10:58:40.953Z,23.32
2019-01-04T10:59:41.010Z,23.38
2019-01-04T11:00:40.872Z,23.47
2019-01-04T11:01:40.869Z,23.59
2019-01-04T11:02:40.822Z,23.48
2019-01-04T11:03:40.810Z,23.50
2019-01-04T11:04:40.866Z,23.55
2019-01-04T11:05:40.755Z,23.62
2019-01-04T11:06:40.714Z,23.62
2019-01-04T11:07:40.701Z,23.57
2019-01-04T11:08:40.674Z,23.59
2019-01-04T11:09:40.747Z,23.48
2019-01-04T11:10:40.650Z,23.62
2019-01-04T11:11:40.575Z,23.50
2019-01-04T11:12:40.572Z,23.52
2019-01-04T11:13:40.542Z,23.48
2019-01-04T11:14:40.616Z,23.59
2019-01-04T11:15:40.513Z,23.55
2019-01-04T11:16:40.474Z,23.67
2019-01-04T11:17:40.447Z,23.70
2019-01-04T11:18:40.408Z,23.70
2019-01-04T11:19:40.397Z,23.79
2019-01-04T11:20:40.464Z,23.64
2019-01-04T11:21:40.373Z,23.64
2019-01-04T11:22:40.314Z,23.70
2019-01-04T11:23:40.284Z,23.63
2019-01-04T11:24:40.255Z,23.60
2019-01-04T11:25:40.266Z,23.56
2019-01-04T11:26:40.279Z,23.56
2019-01-04T11:27:40.167Z,23.44
2019-01-04T11:28:40.137Z,23.52
2019-01-04T11:29:40.123Z,23.45
2019-01-04T11:30:40.110Z,23.53
2019-01-04T11:31:40.203Z,23.44
2019-01-04T11:32:40.160Z,23.41
2019-01-04T11:33:40.009Z,23.35
2019-01-04T11:34:39.997Z,23.44
2019-01-04T11:35:39.968Z,23.41
2019-01-04T11:36:39.920Z,23.37
2019-01-04T11:37:39.992Z,23.35
2019-01-04T11:38:39.864Z,23.35
2019-01-04T11:39:39.846Z,23.42
2019-01-04T11:40:39.802Z,23.38
2019-01-04T11:41:39.809Z,23.47
2019-01-04T11:42:39.882Z,23.50
2019-01-04T11:43:39.745Z,23.40
2019-01-04T11:44:39.732Z,23.52
2019-01-04T11:45:39.702Z,23.42
2019-01-04T11:46:39.668Z,23.42
2019-01-04T11:47:39.789Z,23.44
2019-01-04T11:48:39.614Z,23.57
2019-01-04T11:49:39.583Z,23.55
2019-01-04T11:50:39.563Z,23.53
2019-01-04T11:51:39.563Z,23.56
2019-01-04T11:52:39.665Z,23.50
2019-01-04T11:53:39.472Z,23.42
2019-01-04T11:54:39.511Z,23.48
2019-01-04T11:55:39.483Z,23.41
2019-01-04T11:56:39.405Z,23.47
2019-01-04T11:57:40.742Z,23.35
2019-01-04T11:58:39.433Z,23.41
2019-01-04T11:59:39.667Z,23.35
2019-01-04T12:00:39.308Z,23.35
2019-01-04T12:01:39.303Z,23.41
2019-01-04T12:02:39.221Z,23.40
2019-01-04T12:03:39.225Z,23.44
2019-01-04T12:04:39.338Z,23.48
2019-01-04T12:05:39.156Z,23.53
2019-01-04T12:06:39.128Z,23.57
2019-01-04T12:07:39.108Z,23.72
2019-01-04T12:08:39.061Z,23.89
2019-01-04T12:09:39.199Z,24.00
2019-01-04T12:10:39.037Z,24.08
2019-01-04T12:11:39.028Z,24.21
2019-01-04T12:12:38.961Z,24.21
2019-01-04T12:13:38.933Z,24.24
2019-01-04T12:14:41.452Z,24.22
2019-01-04T12:15:38.889Z,24.32
2019-01-04T12:16:38.891Z,24.32
2019-01-04T12:17:38.859Z,24.39
2019-01-04T12:18:38.823Z,24.36
2019-01-04T12:19:39.140Z,24.37
2019-01-04T12:20:38.922Z,24.34
2019-01-04T12:21:38.765Z,24.34
2019-01-04T12:22:38.849Z,24.48
2019-01-04T12:23:38.683Z,24.45
2019-01-04T12:24:38.848Z,24.46
2019-01-04T12:25:38.636Z,24.55
2019-01-04T12:26:38.625Z,24.63
2019-01-04T12:27:38.718Z,24.66
2019-01-04T12:28:38.560Z,24.69
2019-01-04T12:29:38.702Z,24.71
2019-01-04T12:30:38.503Z,24.83
2019-01-04T12:31:38.475Z,24.85
2019-01-04T12:32:38.458Z,24.89
2019-01-04T12:33:38.405Z,24.96
2019-01-04T12:34:38.413Z,25.04
2019-01-04T12:35:38.484Z,25.11
2019-01-04T12:36:38.335Z,25.09
2019-01-04T12:37:38.296Z,25.14
2019-01-04T12:38:38.278Z,25.14
2019-01-04T12:39:38.255Z,25.11
2019-01-04T12:40:38.279Z,25.29
2019-01-04T12:41:39.785Z,25.27
2019-01-04T12:42:38.637Z,25.32
2019-01-04T12:43:39.940Z,25.29
2019-01-04T12:44:39.421Z,25.38
2019-01-04T12:45:40.071Z,25.52
2019-01-04T12:46:39.703Z,25.57
2019-01-04T12:47:40.709Z,25.71
2019-01-04T12:48:38.071Z,25.66
2019-01-04T12:49:39.889Z,25.79
2019-01-04T12:50:39.146Z,25.85
2019-01-04T12:51:39.868Z,25.86
2019-01-04T12:52:39.436Z,26.07
2019-01-04T12:53:38.001Z,25.99